INFORMACIÓN METAR y TAF
METAR FOR LPMA
ADDS - METARS form results

(2122 UTC 19 September 2020)
Data provider http://aviationweather.gov/metar/data/
 
METAR text: LPMA 192100Z 33004KT 9999 SCT015 22/17 Q1021
Conditions at: LPMA (FUNCHAL/MADEIRA , PT) observed 2100 UTC 19 September 2020
Temperature: 22.0°C (72°F)
Dewpoint: 17.0°C (63°F) [RH = 73%]
Pressure (altimeter): 30.15 inches Hg (1021.0 mb)
Winds: from the NNW (330 degrees) at 5 MPH (4 knots; 2.1 m/s)
Visibility: 6 or more miles (10+ km)
Ceiling: at least 12,000 feet AGL
Clouds: scattered clouds at 1500 feet AGL
Weather: no significant weather observed at this time

METAR text: LPMA 192030Z 32003KT 9999 SCT015 22/18 Q1020
Conditions at: LPMA (FUNCHAL/MADEIRA , PT) observed 2030 UTC 19 September 2020
Temperature: 22.0°C (72°F)
Dewpoint: 18.0°C (64°F) [RH = 78%]
Pressure (altimeter): 30.12 inches Hg (1020.0 mb)
Winds: from the NW (320 degrees) at 3 MPH (3 knots; 1.5 m/s)
Visibility: 6 or more miles (10+ km)
Ceiling: at least 12,000 feet AGL
Clouds: scattered clouds at 1500 feet AGL
Weather: no significant weather observed at this time

Forecast for: LPMA (FUNCHAL/MADEIRA , PT)
Text: TAF LPMA 191700Z 1918/2018 VRB05KT 9999 SCT015
Forecast period: 1800 UTC 19 September 2020 to 1800 UTC 20 September 2020
Forecast type: FROM: standard forecast or significant change
Winds: variable direction winds at 6 MPH (5 knots; 2.6 m/s)
Visibility: 6 or more miles (10+ km)
Ceiling: at least 12,000 feet AGL
Clouds: scattered clouds at 1500 feet AGL
Weather: no significant weather forecast for this period
Text: TEMPO 1918/2004 32010KT
Forecast period: 1800 UTC 19 September 2020 to 0400 UTC 20 September 2020
Forecast type: TEMPORARY: The following changes expected for less than half the time period
Winds: from the NW (320 degrees) at 12 MPH (10 knots; 5.1 m/s)
Visibility: missing
Ceiling: unknown
Clouds: missing
Weather: no significant weather forecast for this period

 MAPA DE AEROPUERTO

 INFORMACIÓN DE PISTA
Pista 05 Longitud 9110 ft Ancho 148 ft
Elevación 147 ft Umbral desplazado 480 ft Rumbo de pista 45
Pista 23 Longitud 9110 ft Ancho 148 ft
Elevación 192 ft Umbral desplazado 490 ft Rumbo de pista 225

 FRECUANCIAS DEL AEROPUERTO
Tipo APP Nombre APP Frecuencia 119.2 MHZ
Tipo TWR Nombre TWR Frecuencia 118.35 MHZ

 RADIO AYUDAS DEL AEROPUERTO
Tipo VOR-DME Nombre Madeira Frecuencia 112200 KHZ
Tipo NDB Nombre Madeira Frecuencia 318 KHZ



Powered by Virtual Airlines Manager [v2.6.2]